map of CAT home
CAT - Airport
Location
City:  Cascais, Lisboa, Portugal
Near (Alt.):Tires
Name:Aeródromo Municipal de Cascais
Old (Alt.):Tires Airport
ICAO:LPCS
IATA:CAT

Details
Type:Airport (Aerodrome, Airfield)
Use:Public/Civil
Latitude:38°43'32"N (38.725556)
Longitude:9°21'19"W (-9.355277)
Elevation:325 ft (99 m)
Variation:2.11°W (WMM2015v2 magnetic declination)
0.16° annual change
Runways:1
Longest:4593 × 98 ft (1400 × 30 m), paved

Time
Time Zone:UTC+0 (DST+1)
Local Time:

Weather
METAR:LPCS 041400Z 22006KT 190V250 CAVOK 14/01 Q1030

Related Locations
Nearby:
Farthest:KTF: 12251 mi / 19716 km
Takaka, TAS, NZ

Find:

   beyond  
but within

Other Information
Maps:
NOTAMs:
Links:
Sources:

  
  • flag of Portugal
  

Sectional Chart

Flight Planning
at skyvector.com

Satellite Image

Google Maps Satellite view

 

Copyright © 2004-2019 Karl L. Swartz. All rights reserved.
The Great Circle Mapper name and logo are trademarks of the Great Circle Mapper.
All other trademarks mentioned herein belong to their respective owners.
Please see credits for attibutions and further copyright information.

  Follow gcmap on Facebook Follow gcmap on Twitter GCmap on LinkedIn

hCard Microformat

Geo Microformat